sensor_id;sensor_type;location;lat;lon;timestamp;pressure;altitude;pressure_sealevel;temperature;humidity
56807;BME280;42687;42.524;12.052;2022-09-11T00:00:16;96633.69;;;16.05;77.50
56807;BME280;42687;42.524;12.052;2022-09-11T00:02:41;96684.31;;;16.34;75.81
56807;BME280;42687;42.524;12.052;2022-09-11T00:05:07;96682.75;;;16.32;76.67
56807;BME280;42687;42.524;12.052;2022-09-11T00:07:33;96683.72;;;16.31;77.50
56807;BME280;42687;42.524;12.052;2022-09-11T00:09:59;96685.56;;;16.30;79.09
56807;BME280;42687;42.524;12.052;2022-09-11T00:12:24;96677.84;;;16.27;77.47
56807;BME280;42687;42.524;12.052;2022-09-11T00:14:50;96678.41;;;16.31;79.37
56807;BME280;42687;42.524;12.052;2022-09-11T00:17:16;96666.97;;;16.30;79.00
56807;BME280;42687;42.524;12.052;2022-09-11T00:19:42;96676.03;;;16.28;79.66
56807;BME280;42687;42.524;12.052;2022-09-11T00:22:08;96671.94;;;16.24;80.13
56807;BME280;42687;42.524;12.052;2022-09-11T00:24:34;96612.41;;;15.84;80.48
56807;BME280;42687;42.524;12.052;2022-09-11T00:26:59;96672.31;;;16.19;82.22
56807;BME280;42687;42.524;12.052;2022-09-11T00:29:25;96669.94;;;16.16;79.99
56807;BME280;42687;42.524;12.052;2022-09-11T00:31:50;96663.53;;;16.18;80.34
56807;BME280;42687;42.524;12.052;2022-09-11T00:34:16;96671.47;;;16.18;77.88
56807;BME280;42687;42.524;12.052;2022-09-11T00:36:41;96659.06;;;16.19;76.29
56807;BME280;42687;42.524;12.052;2022-09-11T00:39:08;96658.91;;;16.21;78.04
56807;BME280;42687;42.524;12.052;2022-09-11T00:41:35;96666.88;;;16.21;79.01
56807;BME280;42687;42.524;12.052;2022-09-11T00:44:04;96658.09;;;16.20;77.01
56807;BME280;42687;42.524;12.052;2022-09-11T00:46:45;96659.91;;;16.20;76.99
56807;BME280;42687;42.524;12.052;2022-09-11T00:51:42;96656.66;;;16.16;77.54
56807;BME280;42687;42.524;12.052;2022-09-11T00:54:09;96657.63;;;16.15;80.03
56807;BME280;42687;42.524;12.052;2022-09-11T00:56:37;96659.69;;;16.11;79.47
56807;BME280;42687;42.524;12.052;2022-09-11T00:59:06;96654.63;;;16.08;77.83
56807;BME280;42687;42.524;12.052;2022-09-11T01:01:32;96657.41;;;16.07;77.52
56807;BME280;42687;42.524;12.052;2022-09-11T01:03:59;96653.81;;;16.08;77.91
56807;BME280;42687;42.524;12.052;2022-09-11T01:06:26;96654.75;;;16.07;78.17
56807;BME280;42687;42.524;12.052;2022-09-11T01:08:51;96622.53;;;15.79;76.93
56807;BME280;42687;42.524;12.052;2022-09-11T01:16:44;96657.97;;;15.89;79.54
56807;BME280;42687;42.524;12.052;2022-09-11T01:19:21;96659.06;;;15.87;80.88
56807;BME280;42687;42.524;12.052;2022-09-11T01:22:00;96650.22;;;15.86;81.88
56807;BME280;42687;42.524;12.052;2022-09-11T01:24:42;96647.72;;;15.84;80.19
56807;BME280;42687;42.524;12.052;2022-09-11T01:32:23;96649.78;;;15.81;83.44
56807;BME280;42687;42.524;12.052;2022-09-11T01:35:02;96651.81;;;15.77;84.27
56807;BME280;42687;42.524;12.052;2022-09-11T01:40:02;96646.78;;;15.74;85.36
56807;BME280;42687;42.524;12.052;2022-09-11T01:42:30;96637.34;;;15.70;83.74
56807;BME280;42687;42.524;12.052;2022-09-11T01:44:58;96650.59;;;15.70;85.30
56807;BME280;42687;42.524;12.052;2022-09-11T01:47:24;96643.75;;;15.67;84.62
56807;BME280;42687;42.524;12.052;2022-09-11T01:49:52;96602.38;;;15.44;84.74
56807;BME280;42687;42.524;12.052;2022-09-11T01:52:23;96646.88;;;15.73;84.97
56807;BME280;42687;42.524;12.052;2022-09-11T01:54:55;96642.56;;;15.72;85.67
56807;BME280;42687;42.524;12.052;2022-09-11T01:57:26;96640.59;;;15.74;84.88
56807;BME280;42687;42.524;12.052;2022-09-11T01:59:54;96641.47;;;15.74;86.36
56807;BME280;42687;42.524;12.052;2022-09-11T02:02:24;96641.56;;;15.73;88.52
56807;BME280;42687;42.524;12.052;2022-09-11T02:04:54;96649.91;;;15.68;89.56
56807;BME280;42687;42.524;12.052;2022-09-11T02:07:24;96636.19;;;15.63;89.60
56807;BME280;42687;42.524;12.052;2022-09-11T02:09:53;96632.78;;;15.61;89.87
56807;BME280;42687;42.524;12.052;2022-09-11T02:12:23;96633.78;;;15.60;90.73
56807;BME280;42687;42.524;12.052;2022-09-11T02:14:50;96626.78;;;15.59;91.18
56807;BME280;42687;42.524;12.052;2022-09-11T02:17:31;96631.34;;;15.57;91.94
56807;BME280;42687;42.524;12.052;2022-09-11T02:20:02;96630.66;;;15.55;92.16
56807;BME280;42687;42.524;12.052;2022-09-11T02:22:28;96635.97;;;15.55;92.30
56807;BME280;42687;42.524;12.052;2022-09-11T02:24:55;96629.78;;;15.54;92.49
56807;BME280;42687;42.524;12.052;2022-09-11T02:27:24;96624.75;;;15.51;93.39
56807;BME280;42687;42.524;12.052;2022-09-11T02:29:52;96624.88;;;15.49;94.22
56807;BME280;42687;42.524;12.052;2022-09-11T02:32:18;96612.72;;;15.47;94.48
56807;BME280;42687;42.524;12.052;2022-09-11T02:34:44;96612.72;;;15.47;94.92
56807;BME280;42687;42.524;12.052;2022-09-11T02:39:50;96609.34;;;15.45;94.81
56807;BME280;42687;42.524;12.052;2022-09-11T02:42:23;96605.59;;;15.47;94.97
56807;BME280;42687;42.524;12.052;2022-09-11T02:45:35;96608.38;;;15.46;95.21
56807;BME280;42687;42.524;12.052;2022-09-11T02:47:54;96614.53;;;15.46;95.67
56807;BME280;42687;42.524;12.052;2022-09-11T02:50:27;96605.72;;;15.46;96.26
56807;BME280;42687;42.524;12.052;2022-09-11T02:53:04;96607.53;;;15.45;96.41
56807;BME280;42687;42.524;12.052;2022-09-11T02:58:31;96595.50;;;15.41;97.22
56807;BME280;42687;42.524;12.052;2022-09-11T03:00:59;96598.88;;;15.43;97.20
56807;BME280;42687;42.524;12.052;2022-09-11T03:03:25;96600.44;;;15.46;97.36
56807;BME280;42687;42.524;12.052;2022-09-11T03:05:51;96597.66;;;15.47;96.98
56807;BME280;42687;42.524;12.052;2022-09-11T03:08:17;96607.91;;;15.52;95.67
56807;BME280;42687;42.524;12.052;2022-09-11T03:10:42;96598.84;;;15.55;95.26
56807;BME280;42687;42.524;12.052;2022-09-11T03:13:14;96607.63;;;15.55;94.98
56807;BME280;42687;42.524;12.052;2022-09-11T03:15:40;96604.84;;;15.57;94.06
56807;BME280;42687;42.524;12.052;2022-09-11T03:18:09;96600.41;;;15.57;93.65
56807;BME280;42687;42.524;12.052;2022-09-11T03:20:35;96601.50;;;15.55;93.15
56807;BME280;42687;42.524;12.052;2022-09-11T03:23:01;96596.44;;;15.51;93.48
56807;BME280;42687;42.524;12.052;2022-09-11T03:25:32;96591.66;;;15.45;93.19
56807;BME280;42687;42.524;12.052;2022-09-11T03:27:57;96590.22;;;15.41;92.61
56807;BME280;42687;42.524;12.052;2022-09-11T03:30:23;96588.53;;;15.40;93.21
56807;BME280;42687;42.524;12.052;2022-09-11T03:32:48;96588.66;;;15.39;92.82
56807;BME280;42687;42.524;12.052;2022-09-11T03:35:14;96586.84;;;15.39;92.22
56807;BME280;42687;42.524;12.052;2022-09-11T03:37:40;96579.63;;;15.41;91.86
56807;BME280;42687;42.524;12.052;2022-09-11T03:40:06;96583.22;;;15.40;90.92
56807;BME280;42687;42.524;12.052;2022-09-11T03:42:34;96581.28;;;15.42;90.00
56807;BME280;42687;42.524;12.052;2022-09-11T03:44:59;96590.78;;;15.45;88.58
56807;BME280;42687;42.524;12.052;2022-09-11T03:47:25;96580.09;;;15.46;89.06
56807;BME280;42687;42.524;12.052;2022-09-11T03:49:51;96585.00;;;15.51;88.16
56807;BME280;42687;42.524;12.052;2022-09-11T03:52:17;96587.41;;;15.54;86.43
56807;BME280;42687;42.524;12.052;2022-09-11T03:54:42;96583.78;;;15.55;86.61
56807;BME280;42687;42.524;12.052;2022-09-11T03:57:08;96587.53;;;15.52;85.76
56807;BME280;42687;42.524;12.052;2022-09-11T03:59:34;96563.25;;;15.36;86.96
56807;BME280;42687;42.524;12.052;2022-09-11T04:01:59;96589.81;;;15.46;87.65
56807;BME280;42687;42.524;12.052;2022-09-11T04:04:25;96529.59;;;15.04;85.36
56807;BME280;42687;42.524;12.052;2022-09-11T04:06:51;96593.44;;;15.45;86.82
56807;BME280;42687;42.524;12.052;2022-09-11T04:09:16;96584.53;;;15.46;87.06
56807;BME280;42687;42.524;12.052;2022-09-11T04:11:42;96590.78;;;15.45;87.86
56807;BME280;42687;42.524;12.052;2022-09-11T04:14:07;96594.31;;;15.45;88.42
56807;BME280;42687;42.524;12.052;2022-09-11T04:16:33;96596.22;;;15.43;89.31
56807;BME280;42687;42.524;12.052;2022-09-11T04:18:59;96600.91;;;15.40;89.69
56807;BME280;42687;42.524;12.052;2022-09-11T04:21:25;96595.75;;;15.38;90.14
56807;BME280;42687;42.524;12.052;2022-09-11T04:23:52;96588.53;;;15.40;90.42
56807;BME280;42687;42.524;12.052;2022-09-11T04:26:21;96596.34;;;15.42;88.89
56807;BME280;42687;42.524;12.052;2022-09-11T04:28:47;96600.44;;;15.46;89.35
56807;BME280;42687;42.524;12.052;2022-09-11T04:31:13;96588.88;;;15.47;87.57
56807;BME280;42687;42.524;12.052;2022-09-11T04:33:38;96604.38;;;15.51;86.17
56807;BME280;42687;42.524;12.052;2022-09-11T04:36:05;96607.91;;;15.52;85.77
56807;BME280;42687;42.524;12.052;2022-09-11T04:38:31;96599.69;;;15.55;85.77
56807;BME280;42687;42.524;12.052;2022-09-11T04:41:01;96596.22;;;15.55;83.77
56807;BME280;42687;42.524;12.052;2022-09-11T04:43:27;96592.81;;;15.52;82.34
56807;BME280;42687;42.524;12.052;2022-09-11T04:45:58;96595.34;;;15.54;82.01
56807;BME280;42687;42.524;12.052;2022-09-11T04:48:24;96606.53;;;15.58;82.03
56807;BME280;42687;42.524;12.052;2022-09-11T04:50:56;96600.41;;;15.57;79.84
56807;BME280;42687;42.524;12.052;2022-09-11T04:53:22;96606.28;;;15.61;82.68
56807;BME280;42687;42.524;12.052;2022-09-11T04:55:47;96606.28;;;15.61;85.17
56807;BME280;42687;42.524;12.052;2022-09-11T04:58:14;96601.25;;;15.58;85.97
56807;BME280;42687;42.524;12.052;2022-09-11T05:00:40;96605.94;;;15.54;86.51
56807;BME280;42687;42.524;12.052;2022-09-11T05:03:05;96607.03;;;15.51;85.86
56807;BME280;42687;42.524;12.052;2022-09-11T05:05:31;96551.22;;;15.21;83.77
56807;BME280;42687;42.524;12.052;2022-09-11T05:07:56;96619.66;;;15.59;84.31
56807;BME280;42687;42.524;12.052;2022-09-11T05:10:22;96621.00;;;15.65;83.83
56807;BME280;42687;42.524;12.052;2022-09-11T05:12:47;96621.56;;;15.68;83.83
56807;BME280;42687;42.524;12.052;2022-09-11T05:15:12;96625.78;;;15.71;83.39
56807;BME280;42687;42.524;12.052;2022-09-11T05:17:38;96622.06;;;15.74;84.08
56807;BME280;42687;42.524;12.052;2022-09-11T05:20:04;96624.56;;;15.75;84.89
56807;BME280;42687;42.524;12.052;2022-09-11T05:22:29;96633.25;;;15.77;84.99
56807;BME280;42687;42.524;12.052;2022-09-11T05:24:55;96638.31;;;15.80;85.23
56807;BME280;42687;42.524;12.052;2022-09-11T05:27:20;96637.09;;;15.84;85.38
56807;BME280;42687;42.524;12.052;2022-09-11T05:29:46;96633.00;;;15.92;85.51
56807;BME280;42687;42.524;12.052;2022-09-11T05:32:11;96642.84;;;16.01;85.83
56807;BME280;42687;42.524;12.052;2022-09-11T05:34:37;96640.53;;;16.08;84.97
56807;BME280;42687;42.524;12.052;2022-09-11T05:37:03;96645.09;;;16.17;85.48
56807;BME280;42687;42.524;12.052;2022-09-11T05:39:28;96633.84;;;16.25;83.70
56807;BME280;42687;42.524;12.052;2022-09-11T05:41:54;96647.31;;;16.33;81.59
56807;BME280;42687;42.524;12.052;2022-09-11T05:44:19;96643.63;;;16.45;82.21
56807;BME280;42687;42.524;12.052;2022-09-11T05:46:45;96644.53;;;16.56;81.22
56807;BME280;42687;42.524;12.052;2022-09-11T05:49:11;96647.25;;;16.65;78.25
56807;BME280;42687;42.524;12.052;2022-09-11T05:51:37;96637.53;;;16.76;77.42
56807;BME280;42687;42.524;12.052;2022-09-11T05:54:06;96655.00;;;16.90;76.80
56807;BME280;42687;42.524;12.052;2022-09-11T05:56:32;96650.81;;;16.97;77.41
56807;BME280;42687;42.524;12.052;2022-09-11T05:58:57;96648.03;;;16.98;78.11
56807;BME280;42687;42.524;12.052;2022-09-11T06:01:24;96646.09;;;17.00;77.83
56807;BME280;42687;42.524;12.052;2022-09-11T06:03:50;96654.97;;;17.11;77.77
56807;BME280;42687;42.524;12.052;2022-09-11T06:06:16;96654.41;;;17.17;77.31
56807;BME280;42687;42.524;12.052;2022-09-11T06:08:42;96658.28;;;17.44;74.34
56807;BME280;42687;42.524;12.052;2022-09-11T06:11:08;96664.16;;;17.88;73.74
56807;BME280;42687;42.524;12.052;2022-09-11T06:13:36;96667.44;;;18.41;73.08
56807;BME280;42687;42.524;12.052;2022-09-11T06:16:03;96666.97;;;18.94;72.63
56807;BME280;42687;42.524;12.052;2022-09-11T06:18:29;96658.81;;;19.43;73.00
56807;BME280;42687;42.524;12.052;2022-09-11T06:21:06;96671.22;;;19.90;73.43
56807;BME280;42687;42.524;12.052;2022-09-11T06:23:33;96671.22;;;20.36;73.45
56807;BME280;42687;42.524;12.052;2022-09-11T06:26:09;96668.44;;;20.82;73.75
56807;BME280;42687;42.524;12.052;2022-09-11T06:28:35;96666.38;;;21.28;73.90
56807;BME280;42687;42.524;12.052;2022-09-11T06:31:04;96667.13;;;21.73;73.62
56807;BME280;42687;42.524;12.052;2022-09-11T06:33:30;96672.25;;;22.09;73.26
56807;BME280;42687;42.524;12.052;2022-09-11T06:35:57;96668.66;;;22.52;72.66
56807;BME280;42687;42.524;12.052;2022-09-11T06:38:23;96671.50;;;22.91;72.02
56807;BME280;42687;42.524;12.052;2022-09-11T06:40:48;96658.03;;;23.32;71.43
56807;BME280;42687;42.524;12.052;2022-09-11T06:43:15;96668.81;;;23.72;70.50
56807;BME280;42687;42.524;12.052;2022-09-11T06:45:41;96668.31;;;24.08;69.36
56807;BME280;42687;42.524;12.052;2022-09-11T06:48:06;96672.66;;;24.41;68.61
56807;BME280;42687;42.524;12.052;2022-09-11T06:50:35;96666.50;;;24.78;67.18
56807;BME280;42687;42.524;12.052;2022-09-11T06:53:04;96662.88;;;25.09;66.10
56807;BME280;42687;42.524;12.052;2022-09-11T06:55:31;96656.22;;;25.50;65.10
56807;BME280;42687;42.524;12.052;2022-09-11T06:57:57;96654.53;;;25.79;64.37
56807;BME280;42687;42.524;12.052;2022-09-11T07:00:22;96652.28;;;25.97;64.16
56807;BME280;42687;42.524;12.052;2022-09-11T07:02:47;96658.91;;;26.32;63.84
56807;BME280;42687;42.524;12.052;2022-09-11T07:05:13;96657.94;;;26.61;63.49
56807;BME280;42687;42.524;12.052;2022-09-11T07:07:38;96656.16;;;26.90;63.13
56807;BME280;42687;42.524;12.052;2022-09-11T07:10:04;96650.88;;;27.03;63.60
56807;BME280;42687;42.524;12.052;2022-09-11T07:12:30;96657.22;;;27.24;63.15
56807;BME280;42687;42.524;12.052;2022-09-11T07:14:56;96616.84;;;27.09;63.65
56807;BME280;42687;42.524;12.052;2022-09-11T07:17:21;96659.09;;;27.52;63.55
56807;BME280;42687;42.524;12.052;2022-09-11T07:19:47;96659.97;;;27.59;63.48
56807;BME280;42687;42.524;12.052;2022-09-11T07:22:12;96659.63;;;27.75;63.21
56807;BME280;42687;42.524;12.052;2022-09-11T07:24:39;96658.88;;;27.95;62.86
56807;BME280;42687;42.524;12.052;2022-09-11T07:27:05;96658.53;;;28.05;62.91
56807;BME280;42687;42.524;12.052;2022-09-11T07:29:30;96661.88;;;28.07;62.50
56807;BME280;42687;42.524;12.052;2022-09-11T07:31:56;96668.53;;;28.11;62.50
56807;BME280;42687;42.524;12.052;2022-09-11T07:34:22;96666.44;;;28.13;61.94
56807;BME280;42687;42.524;12.052;2022-09-11T07:36:48;96666.50;;;28.26;61.72
56807;BME280;42687;42.524;12.052;2022-09-11T07:39:16;96677.59;;;28.45;61.28
56807;BME280;42687;42.524;12.052;2022-09-11T07:41:41;96679.31;;;28.66;61.23
56807;BME280;42687;42.524;12.052;2022-09-11T07:44:07;96686.19;;;28.75;59.32
56807;BME280;42687;42.524;12.052;2022-09-11T07:46:32;96691.28;;;28.43;60.70
56807;BME280;42687;42.524;12.052;2022-09-11T07:48:58;96696.25;;;28.26;60.80
56807;BME280;42687;42.524;12.052;2022-09-11T07:51:26;96694.31;;;28.13;60.74
56807;BME280;42687;42.524;12.052;2022-09-11T07:53:52;96696.16;;;28.06;60.52
56807;BME280;42687;42.524;12.052;2022-09-11T07:56:23;96703.72;;;27.83;60.48
56807;BME280;42687;42.524;12.052;2022-09-11T07:58:49;96700.72;;;27.64;59.89
56807;BME280;42687;42.524;12.052;2022-09-11T08:01:16;96713.09;;;27.52;60.21
56807;BME280;42687;42.524;12.052;2022-09-11T08:03:42;96719.38;;;27.59;59.45
56807;BME280;42687;42.524;12.052;2022-09-11T08:06:09;96715.25;;;27.63;59.27
56807;BME280;42687;42.524;12.052;2022-09-11T08:08:35;96721.44;;;27.57;59.19
56807;BME280;42687;42.524;12.052;2022-09-11T08:11:06;96720.00;;;27.61;58.40
56807;BME280;42687;42.524;12.052;2022-09-11T08:13:32;96720.91;;;27.68;58.70
56807;BME280;42687;42.524;12.052;2022-09-11T08:15:58;96726.38;;;27.82;57.56
56807;BME280;42687;42.524;12.052;2022-09-11T08:18:24;96728.19;;;27.74;57.84
56807;BME280;42687;42.524;12.052;2022-09-11T08:20:49;96716.03;;;27.92;57.54
56807;BME280;42687;42.524;12.052;2022-09-11T08:23:15;96720.34;;;28.21;56.39
56807;BME280;42687;42.524;12.052;2022-09-11T08:25:40;96727.88;;;28.39;56.16
56807;BME280;42687;42.524;12.052;2022-09-11T08:28:06;96729.97;;;28.37;55.58
56807;BME280;42687;42.524;12.052;2022-09-11T08:30:33;96729.50;;;28.20;56.42
56807;BME280;42687;42.524;12.052;2022-09-11T08:33:00;96733.16;;;28.06;56.28
56807;BME280;42687;42.524;12.052;2022-09-11T08:35:25;96729.50;;;27.85;56.61
56807;BME280;42687;42.524;12.052;2022-09-11T08:37:51;96738.38;;;27.72;55.64
56807;BME280;42687;42.524;12.052;2022-09-11T08:40:18;96729.00;;;27.68;56.76
56807;BME280;42687;42.524;12.052;2022-09-11T08:42:44;96736.16;;;27.83;55.99
56807;BME280;42687;42.524;12.052;2022-09-11T08:45:12;96731.09;;;28.01;56.03
56807;BME280;42687;42.524;12.052;2022-09-11T08:47:38;96732.09;;;28.00;55.64
56807;BME280;42687;42.524;12.052;2022-09-11T08:50:52;96732.13;;;28.07;55.08
56807;BME280;42687;42.524;12.052;2022-09-11T08:52:52;96722.31;;;27.99;54.92
56807;BME280;42687;42.524;12.052;2022-09-11T08:55:29;96723.38;;;28.05;54.62
56807;BME280;42687;42.524;12.052;2022-09-11T08:58:06;96726.59;;;28.22;54.30
56807;BME280;42687;42.524;12.052;2022-09-11T09:00:38;96727.31;;;28.57;53.89
56807;BME280;42687;42.524;12.052;2022-09-11T09:03:22;96728.00;;;28.66;53.29
56807;BME280;42687;42.524;12.052;2022-09-11T09:05:55;96726.16;;;29.00;53.43
56807;BME280;42687;42.524;12.052;2022-09-11T09:15:56;96733.03;;;29.09;52.15
56807;BME280;42687;42.524;12.052;2022-09-11T09:18:31;96732.81;;;28.91;53.40
56807;BME280;42687;42.524;12.052;2022-09-11T09:20:59;96736.31;;;28.78;53.44
56807;BME280;42687;42.524;12.052;2022-09-11T09:23:28;96728.84;;;28.87;52.86
56807;BME280;42687;42.524;12.052;2022-09-11T09:25:56;96721.56;;;28.87;53.14
56807;BME280;42687;42.524;12.052;2022-09-11T09:28:22;96737.84;;;28.94;52.84
56807;BME280;42687;42.524;12.052;2022-09-11T09:30:57;96736.59;;;29.10;52.49
56807;BME280;42687;42.524;12.052;2022-09-11T09:35:50;96735.53;;;29.24;52.31
56807;BME280;42687;42.524;12.052;2022-09-11T09:38:16;96735.75;;;28.96;52.48
56807;BME280;42687;42.524;12.052;2022-09-11T09:41:37;96721.56;;;27.77;54.29
56807;BME280;42687;42.524;12.052;2022-09-11T09:46:06;96733.75;;;26.51;55.67
56807;BME280;42687;42.524;12.052;2022-09-11T09:48:35;96729.13;;;26.08;55.86
56807;BME280;42687;42.524;12.052;2022-09-11T09:51:03;96722.91;;;26.44;55.01
56807;BME280;42687;42.524;12.052;2022-09-11T09:53:33;96715.38;;;26.76;53.65
56807;BME280;42687;42.524;12.052;2022-09-11T09:56:02;96716.19;;;26.55;54.50
56807;BME280;42687;42.524;12.052;2022-09-11T09:58:32;96716.03;;;26.78;53.11
56807;BME280;42687;42.524;12.052;2022-09-11T10:00:58;96715.59;;;27.25;53.04
56807;BME280;42687;42.524;12.052;2022-09-11T10:03:24;96712.84;;;27.75;52.09
56807;BME280;42687;42.524;12.052;2022-09-11T10:05:51;96713.25;;;28.13;51.29
56807;BME280;42687;42.524;12.052;2022-09-11T10:08:24;96712.75;;;28.45;50.69
56807;BME280;42687;42.524;12.052;2022-09-11T10:11:00;96706.38;;;28.66;51.07
56807;BME280;42687;42.524;12.052;2022-09-11T10:13:29;96706.59;;;28.91;50.38
56807;BME280;42687;42.524;12.052;2022-09-11T10:15:56;96705.53;;;29.12;50.14
56807;BME280;42687;42.524;12.052;2022-09-11T10:20:49;96701.81;;;29.40;50.13
56807;BME280;42687;42.524;12.052;2022-09-11T10:23:25;96704.50;;;29.54;50.02
56807;BME280;42687;42.524;12.052;2022-09-11T10:25:51;96688.66;;;29.57;50.00
56807;BME280;42687;42.524;12.052;2022-09-11T10:28:18;96690.78;;;29.49;49.98
56807;BME280;42687;42.524;12.052;2022-09-11T10:33:17;96702.03;;;28.17;51.52
56807;BME280;42687;42.524;12.052;2022-09-11T10:35:48;96696.81;;;28.15;51.35
56807;BME280;42687;42.524;12.052;2022-09-11T10:38:15;96702.34;;;28.55;50.07
56807;BME280;42687;42.524;12.052;2022-09-11T10:40:55;96707.09;;;28.40;49.90
56807;BME280;42687;42.524;12.052;2022-09-11T10:43:23;96704.69;;;28.03;50.24
56807;BME280;42687;42.524;12.052;2022-09-11T10:46:19;96697.31;;;27.90;50.62
56807;BME280;42687;42.524;12.052;2022-09-11T10:49:06;96695.16;;;28.21;50.35
56807;BME280;42687;42.524;12.052;2022-09-11T10:51:40;96694.84;;;28.57;49.02
56807;BME280;42687;42.524;12.052;2022-09-11T11:02:31;96695.72;;;28.65;48.51
56807;BME280;42687;42.524;12.052;2022-09-11T11:05:05;96689.25;;;28.59;48.73
56807;BME280;42687;42.524;12.052;2022-09-11T11:07:54;96685.94;;;28.57;46.47
56807;BME280;42687;42.524;12.052;2022-09-11T11:10:35;96695.34;;;28.81;47.74
56807;BME280;42687;42.524;12.052;2022-09-11T11:18:29;96703.69;;;29.20;47.26
56807;BME280;42687;42.524;12.052;2022-09-11T11:23:44;96705.97;;;29.03;46.75
56807;BME280;42687;42.524;12.052;2022-09-11T11:29:06;96706.09;;;28.54;46.91
56807;BME280;42687;42.524;12.052;2022-09-11T11:31:47;96704.72;;;28.85;46.46
56807;BME280;42687;42.524;12.052;2022-09-11T11:39:31;96691.63;;;29.29;46.01
56807;BME280;42687;42.524;12.052;2022-09-11T11:44:44;96693.66;;;29.67;46.03
56807;BME280;42687;42.524;12.052;2022-09-11T11:47:12;96690.72;;;29.69;45.28
56807;BME280;42687;42.524;12.052;2022-09-11T11:49:45;96684.84;;;29.78;45.40
56807;BME280;42687;42.524;12.052;2022-09-11T11:54:42;96677.22;;;30.14;44.59
56807;BME280;42687;42.524;12.052;2022-09-11T11:57:13;96687.00;;;30.22;45.47
56807;BME280;42687;42.524;12.052;2022-09-11T12:04:45;96682.19;;;30.69;45.22
56807;BME280;42687;42.524;12.052;2022-09-11T12:07:20;96671.28;;;30.76;44.14
56807;BME280;42687;42.524;12.052;2022-09-11T12:09:46;96672.97;;;30.70;44.94
56807;BME280;42687;42.524;12.052;2022-09-11T12:12:13;96670.41;;;30.75;44.55
56807;BME280;42687;42.524;12.052;2022-09-11T12:14:46;96661.22;;;30.44;45.60
56807;BME280;42687;42.524;12.052;2022-09-11T12:17:16;96662.97;;;30.32;45.65
56807;BME280;42687;42.524;12.052;2022-09-11T12:22:35;96666.44;;;30.01;46.09
56807;BME280;42687;42.524;12.052;2022-09-11T12:25:49;96665.66;;;29.87;46.35
56807;BME280;42687;42.524;12.052;2022-09-11T12:27:52;96658.16;;;29.89;46.21
56807;BME280;42687;42.524;12.052;2022-09-11T12:30:51;96663.50;;;30.09;45.69
56807;BME280;42687;42.524;12.052;2022-09-11T12:36:17;96665.16;;;30.10;45.05
56807;BME280;42687;42.524;12.052;2022-09-11T12:38:48;96662.03;;;30.45;45.19
56807;BME280;42687;42.524;12.052;2022-09-11T12:41:26;96666.50;;;30.71;45.84
56807;BME280;42687;42.524;12.052;2022-09-11T12:43:53;96659.34;;;30.77;44.15
56807;BME280;42687;42.524;12.052;2022-09-11T12:48:45;96659.53;;;30.50;44.45
56807;BME280;42687;42.524;12.052;2022-09-11T12:51:21;96656.44;;;30.47;42.61
56807;BME280;42687;42.524;12.052;2022-09-11T12:53:49;96659.66;;;30.62;44.89
56807;BME280;42687;42.524;12.052;2022-09-11T12:56:18;96655.28;;;30.93;44.94
56807;BME280;42687;42.524;12.052;2022-09-11T12:58:56;96659.03;;;30.92;44.98
56807;BME280;42687;42.524;12.052;2022-09-11T13:01:31;96658.88;;;30.87;45.44
56807;BME280;42687;42.524;12.052;2022-09-11T13:04:16;96655.75;;;30.83;42.49
56807;BME280;42687;42.524;12.052;2022-09-11T13:09:17;96639.09;;;31.05;44.26
56807;BME280;42687;42.524;12.052;2022-09-11T13:11:46;96639.34;;;30.71;44.08
56807;BME280;42687;42.524;12.052;2022-09-11T13:16:53;96638.72;;;29.00;48.64
56807;BME280;42687;42.524;12.052;2022-09-11T13:19:19;96637.06;;;28.99;46.27
56807;BME280;42687;42.524;12.052;2022-09-11T13:21:45;96632.66;;;29.31;47.03
56807;BME280;42687;42.524;12.052;2022-09-11T13:27:14;96621.44;;;29.93;44.19
56807;BME280;42687;42.524;12.052;2022-09-11T13:29:42;96612.78;;;30.16;42.82
56807;BME280;42687;42.524;12.052;2022-09-11T13:32:09;96630.56;;;30.44;44.13
56807;BME280;42687;42.524;12.052;2022-09-11T13:34:40;96619.81;;;30.63;43.56
56807;BME280;42687;42.524;12.052;2022-09-11T13:37:08;96615.09;;;30.76;45.42
56807;BME280;42687;42.524;12.052;2022-09-11T13:39:36;96611.78;;;31.00;44.03
56807;BME280;42687;42.524;12.052;2022-09-11T13:42:05;96605.84;;;31.09;43.62
56807;BME280;42687;42.524;12.052;2022-09-11T13:44:45;96615.69;;;31.29;40.50
56807;BME280;42687;42.524;12.052;2022-09-11T13:47:30;96610.28;;;31.48;41.41
56807;BME280;42687;42.524;12.052;2022-09-11T13:50:03;96613.13;;;31.34;42.92
56807;BME280;42687;42.524;12.052;2022-09-11T13:52:31;96607.28;;;31.12;43.49
56807;BME280;42687;42.524;12.052;2022-09-11T13:55:00;96614.88;;;30.78;43.98
56807;BME280;42687;42.524;12.052;2022-09-11T13:57:28;96609.72;;;30.38;43.36
56807;BME280;42687;42.524;12.052;2022-09-11T13:59:58;96605.50;;;30.10;45.13
56807;BME280;42687;42.524;12.052;2022-09-11T14:04:51;96593.28;;;29.22;45.99
56807;BME280;42687;42.524;12.052;2022-09-11T14:07:19;96610.22;;;28.77;44.40
56807;BME280;42687;42.524;12.052;2022-09-11T14:09:47;96556.28;;;28.22;47.85
56807;BME280;42687;42.524;12.052;2022-09-11T14:12:14;96606.19;;;28.26;48.34
56807;BME280;42687;42.524;12.052;2022-09-11T14:14:40;96595.88;;;27.94;49.06
56807;BME280;42687;42.524;12.052;2022-09-11T14:17:11;96598.94;;;27.71;49.23
56807;BME280;42687;42.524;12.052;2022-09-11T14:19:41;96599.88;;;27.50;49.58
56807;BME280;42687;42.524;12.052;2022-09-11T14:22:43;96592.09;;;27.34;49.61
56807;BME280;42687;42.524;12.052;2022-09-11T14:25:03;96594.72;;;27.20;50.16
56807;BME280;42687;42.524;12.052;2022-09-11T14:27:40;96592.38;;;27.10;49.87
56807;BME280;42687;42.524;12.052;2022-09-11T14:35:51;96578.47;;;26.57;49.60